sensor_id;sensor_type;location;lat;lon;timestamp;P1;durP1;ratioP1;P2;durP2;ratioP2
35290;SDS011;21411;50.024;19.220;2023-04-08T00:00:53;41.10;;;29.90;;
35290;SDS011;21411;50.024;19.220;2023-04-08T00:03:20;38.30;;;28.00;;
35290;SDS011;21411;50.024;19.220;2023-04-08T00:05:46;39.30;;;28.20;;
35290;SDS011;21411;50.024;19.220;2023-04-08T00:08:13;40.00;;;29.70;;
35290;SDS011;21411;50.024;19.220;2023-04-08T00:10:39;40.50;;;27.40;;
35290;SDS011;21411;50.024;19.220;2023-04-08T00:13:06;34.50;;;25.30;;
35290;SDS011;21411;50.024;19.220;2023-04-08T00:15:35;40.10;;;29.50;;
35290;SDS011;21411;50.024;19.220;2023-04-08T00:18:02;40.60;;;30.10;;
35290;SDS011;21411;50.024;19.220;2023-04-08T00:20:29;37.60;;;29.30;;
35290;SDS011;21411;50.024;19.220;2023-04-08T00:22:55;42.20;;;29.50;;
35290;SDS011;21411;50.024;19.220;2023-04-08T00:25:22;39.20;;;28.00;;
35290;SDS011;21411;50.024;19.220;2023-04-08T00:27:48;42.30;;;29.80;;
35290;SDS011;21411;50.024;19.220;2023-04-08T00:30:15;40.40;;;29.30;;
35290;SDS011;21411;50.024;19.220;2023-04-08T00:32:42;40.80;;;28.20;;
35290;SDS011;21411;50.024;19.220;2023-04-08T00:35:08;39.50;;;30.90;;
35290;SDS011;21411;50.024;19.220;2023-04-08T00:37:35;38.80;;;30.30;;
35290;SDS011;21411;50.024;19.220;2023-04-08T00:40:02;39.50;;;29.70;;
35290;SDS011;21411;50.024;19.220;2023-04-08T00:42:29;40.20;;;29.30;;
35290;SDS011;21411;50.024;19.220;2023-04-08T00:44:56;39.60;;;29.70;;
35290;SDS011;21411;50.024;19.220;2023-04-08T00:47:22;40.30;;;30.30;;
35290;SDS011;21411;50.024;19.220;2023-04-08T00:49:49;41.30;;;31.10;;
35290;SDS011;21411;50.024;19.220;2023-04-08T00:52:16;39.50;;;31.50;;
35290;SDS011;21411;50.024;19.220;2023-04-08T00:54:42;40.50;;;32.10;;
35290;SDS011;21411;50.024;19.220;2023-04-08T00:57:09;41.50;;;30.90;;
35290;SDS011;21411;50.024;19.220;2023-04-08T00:59:35;37.50;;;29.20;;
35290;SDS011;21411;50.024;19.220;2023-04-08T01:07:31;35.00;;;27.30;;
35290;SDS011;21411;50.024;19.220;2023-04-08T01:10:11;40.70;;;30.50;;
35290;SDS011;21411;50.024;19.220;2023-04-08T01:15:37;42.30;;;32.70;;
35290;SDS011;21411;50.024;19.220;2023-04-08T01:18:07;35.00;;;26.60;;
35290;SDS011;21411;50.024;19.220;2023-04-08T01:20:35;33.50;;;25.60;;
35290;SDS011;21411;50.024;19.220;2023-04-08T01:23:07;32.80;;;25.30;;
35290;SDS011;21411;50.024;19.220;2023-04-08T01:25:51;33.30;;;25.50;;
35290;SDS011;21411;50.024;19.220;2023-04-08T01:28:18;32.80;;;25.90;;
35290;SDS011;21411;50.024;19.220;2023-04-08T01:30:47;32.50;;;25.40;;
35290;SDS011;21411;50.024;19.220;2023-04-08T01:33:16;31.90;;;24.70;;
35290;SDS011;21411;50.024;19.220;2023-04-08T01:35:43;29.40;;;23.50;;
35290;SDS011;21411;50.024;19.220;2023-04-08T01:38:13;32.10;;;24.70;;
35290;SDS011;21411;50.024;19.220;2023-04-08T01:40:41;32.10;;;25.50;;
35290;SDS011;21411;50.024;19.220;2023-04-08T01:43:10;34.10;;;27.50;;
35290;SDS011;21411;50.024;19.220;2023-04-08T01:45:39;34.20;;;26.50;;
35290;SDS011;21411;50.024;19.220;2023-04-08T01:48:08;36.20;;;27.60;;
35290;SDS011;21411;50.024;19.220;2023-04-08T01:50:37;35.80;;;27.30;;
35290;SDS011;21411;50.024;19.220;2023-04-08T01:53:05;35.50;;;27.20;;
35290;SDS011;21411;50.024;19.220;2023-04-08T01:55:34;30.50;;;24.20;;
35290;SDS011;21411;50.024;19.220;2023-04-08T01:58:02;35.70;;;27.50;;
35290;SDS011;21411;50.024;19.220;2023-04-08T02:00:41;35.90;;;27.20;;
35290;SDS011;21411;50.024;19.220;2023-04-08T02:03:08;35.00;;;27.30;;
35290;SDS011;21411;50.024;19.220;2023-04-08T02:05:38;35.30;;;27.00;;
35290;SDS011;21411;50.024;19.220;2023-04-08T02:08:05;37.40;;;28.60;;
35290;SDS011;21411;50.024;19.220;2023-04-08T02:10:31;35.80;;;27.30;;
35290;SDS011;21411;50.024;19.220;2023-04-08T02:12:58;38.30;;;28.80;;
35290;SDS011;21411;50.024;19.220;2023-04-08T02:15:26;35.10;;;28.10;;
35290;SDS011;21411;50.024;19.220;2023-04-08T02:17:59;31.70;;;24.20;;
35290;SDS011;21411;50.024;19.220;2023-04-08T02:20:36;33.80;;;26.30;;
35290;SDS011;21411;50.024;19.220;2023-04-08T02:23:06;37.50;;;28.80;;
35290;SDS011;21411;50.024;19.220;2023-04-08T02:25:37;36.40;;;28.30;;
35290;SDS011;21411;50.024;19.220;2023-04-08T02:28:05;39.00;;;29.90;;
35290;SDS011;21411;50.024;19.220;2023-04-08T02:30:35;35.70;;;26.60;;
35290;SDS011;21411;50.024;19.220;2023-04-08T02:33:03;34.70;;;28.10;;
35290;SDS011;21411;50.024;19.220;2023-04-08T02:35:30;36.70;;;26.60;;
35290;SDS011;21411;50.024;19.220;2023-04-08T02:37:57;31.90;;;24.60;;
35290;SDS011;21411;50.024;19.220;2023-04-08T02:40:25;35.40;;;26.60;;
35290;SDS011;21411;50.024;19.220;2023-04-08T02:42:53;35.40;;;27.30;;
35290;SDS011;21411;50.024;19.220;2023-04-08T02:45:20;37.70;;;28.30;;
35290;SDS011;21411;50.024;19.220;2023-04-08T02:47:47;35.90;;;28.00;;
35290;SDS011;21411;50.024;19.220;2023-04-08T02:50:14;38.60;;;28.60;;
35290;SDS011;21411;50.024;19.220;2023-04-08T02:52:40;36.60;;;28.60;;
35290;SDS011;21411;50.024;19.220;2023-04-08T02:55:08;34.90;;;26.10;;
35290;SDS011;21411;50.024;19.220;2023-04-08T02:57:37;40.50;;;30.40;;
35290;SDS011;21411;50.024;19.220;2023-04-08T03:00:05;39.30;;;29.90;;
35290;SDS011;21411;50.024;19.220;2023-04-08T03:02:33;33.70;;;27.40;;
35290;SDS011;21411;50.024;19.220;2023-04-08T03:05:00;34.60;;;26.30;;
35290;SDS011;21411;50.024;19.220;2023-04-08T03:07:27;35.20;;;25.70;;
35290;SDS011;21411;50.024;19.220;2023-04-08T03:09:54;34.20;;;27.70;;
35290;SDS011;21411;50.024;19.220;2023-04-08T03:12:21;31.10;;;26.00;;
35290;SDS011;21411;50.024;19.220;2023-04-08T03:14:48;39.30;;;29.90;;
35290;SDS011;21411;50.024;19.220;2023-04-08T03:17:15;35.80;;;28.20;;
35290;SDS011;21411;50.024;19.220;2023-04-08T03:19:42;37.10;;;29.00;;
35290;SDS011;21411;50.024;19.220;2023-04-08T03:22:08;38.20;;;27.10;;
35290;SDS011;21411;50.024;19.220;2023-04-08T03:24:35;36.60;;;28.30;;
35290;SDS011;21411;50.024;19.220;2023-04-08T03:27:02;34.70;;;27.80;;
35290;SDS011;21411;50.024;19.220;2023-04-08T03:29:29;34.30;;;27.40;;
35290;SDS011;21411;50.024;19.220;2023-04-08T03:31:55;32.90;;;26.20;;
35290;SDS011;21411;50.024;19.220;2023-04-08T03:34:22;34.70;;;26.20;;
35290;SDS011;21411;50.024;19.220;2023-04-08T03:36:48;35.60;;;27.10;;
35290;SDS011;21411;50.024;19.220;2023-04-08T03:39:15;34.40;;;25.60;;
35290;SDS011;21411;50.024;19.220;2023-04-08T03:41:42;32.30;;;26.20;;
35290;SDS011;21411;50.024;19.220;2023-04-08T03:44:08;35.00;;;25.50;;
35290;SDS011;21411;50.024;19.220;2023-04-08T03:46:35;34.60;;;27.70;;
35290;SDS011;21411;50.024;19.220;2023-04-08T03:49:02;33.50;;;26.30;;
35290;SDS011;21411;50.024;19.220;2023-04-08T03:51:28;32.70;;;26.90;;
35290;SDS011;21411;50.024;19.220;2023-04-08T03:53:55;35.20;;;28.30;;
35290;SDS011;21411;50.024;19.220;2023-04-08T03:56:21;35.60;;;28.30;;
35290;SDS011;21411;50.024;19.220;2023-04-08T03:58:48;32.80;;;26.50;;
35290;SDS011;21411;50.024;19.220;2023-04-08T04:01:14;38.10;;;29.40;;
35290;SDS011;21411;50.024;19.220;2023-04-08T04:03:41;33.60;;;25.90;;
35290;SDS011;21411;50.024;19.220;2023-04-08T04:06:07;41.40;;;30.90;;
35290;SDS011;21411;50.024;19.220;2023-04-08T04:08:34;37.50;;;29.70;;
35290;SDS011;21411;50.024;19.220;2023-04-08T04:11:00;37.40;;;28.10;;
35290;SDS011;21411;50.024;19.220;2023-04-08T04:13:27;36.30;;;24.50;;
35290;SDS011;21411;50.024;19.220;2023-04-08T04:15:54;32.30;;;25.20;;
35290;SDS011;21411;50.024;19.220;2023-04-08T04:18:20;31.60;;;24.40;;
35290;SDS011;21411;50.024;19.220;2023-04-08T04:20:47;32.50;;;24.40;;
35290;SDS011;21411;50.024;19.220;2023-04-08T04:23:13;33.40;;;24.70;;
35290;SDS011;21411;50.024;19.220;2023-04-08T04:25:40;33.90;;;24.60;;
35290;SDS011;21411;50.024;19.220;2023-04-08T04:28:07;30.30;;;22.00;;
35290;SDS011;21411;50.024;19.220;2023-04-08T04:30:35;29.90;;;22.60;;
35290;SDS011;21411;50.024;19.220;2023-04-08T04:33:05;28.80;;;21.20;;
35290;SDS011;21411;50.024;19.220;2023-04-08T04:35:32;26.70;;;19.50;;
35290;SDS011;21411;50.024;19.220;2023-04-08T04:37:59;30.90;;;24.50;;
35290;SDS011;21411;50.024;19.220;2023-04-08T04:40:25;32.10;;;23.10;;
35290;SDS011;21411;50.024;19.220;2023-04-08T04:42:52;32.20;;;24.50;;
35290;SDS011;21411;50.024;19.220;2023-04-08T04:45:18;33.10;;;25.50;;
35290;SDS011;21411;50.024;19.220;2023-04-08T04:47:45;33.00;;;23.80;;
35290;SDS011;21411;50.024;19.220;2023-04-08T04:50:11;32.80;;;24.90;;
35290;SDS011;21411;50.024;19.220;2023-04-08T04:52:38;35.00;;;24.50;;
35290;SDS011;21411;50.024;19.220;2023-04-08T04:55:04;33.60;;;24.30;;
35290;SDS011;21411;50.024;19.220;2023-04-08T04:57:31;35.00;;;25.30;;
35290;SDS011;21411;50.024;19.220;2023-04-08T04:59:58;33.70;;;24.30;;
35290;SDS011;21411;50.024;19.220;2023-04-08T05:02:24;33.80;;;25.70;;
35290;SDS011;21411;50.024;19.220;2023-04-08T05:04:51;35.10;;;26.40;;
35290;SDS011;21411;50.024;19.220;2023-04-08T05:07:21;36.00;;;25.30;;
35290;SDS011;21411;50.024;19.220;2023-04-08T05:09:48;32.30;;;24.10;;
35290;SDS011;21411;50.024;19.220;2023-04-08T05:12:14;33.00;;;24.40;;
35290;SDS011;21411;50.024;19.220;2023-04-08T05:14:41;32.30;;;24.60;;
35290;SDS011;21411;50.024;19.220;2023-04-08T05:17:08;30.60;;;24.30;;
35290;SDS011;21411;50.024;19.220;2023-04-08T05:19:35;32.50;;;25.00;;
35290;SDS011;21411;50.024;19.220;2023-04-08T05:22:01;28.70;;;22.80;;
35290;SDS011;21411;50.024;19.220;2023-04-08T05:24:28;30.30;;;23.70;;
35290;SDS011;21411;50.024;19.220;2023-04-08T05:26:54;28.00;;;23.40;;
35290;SDS011;21411;50.024;19.220;2023-04-08T05:29:22;30.10;;;23.70;;
35290;SDS011;21411;50.024;19.220;2023-04-08T05:31:49;26.50;;;22.20;;
35290;SDS011;21411;50.024;19.220;2023-04-08T05:34:16;29.00;;;22.90;;
35290;SDS011;21411;50.024;19.220;2023-04-08T05:36:48;25.10;;;21.60;;
35290;SDS011;21411;50.024;19.220;2023-04-08T05:39:18;28.70;;;23.60;;
35290;SDS011;21411;50.024;19.220;2023-04-08T05:41:45;30.40;;;23.60;;
35290;SDS011;21411;50.024;19.220;2023-04-08T05:44:12;25.40;;;21.50;;
35290;SDS011;21411;50.024;19.220;2023-04-08T05:46:39;24.90;;;20.20;;
35290;SDS011;21411;50.024;19.220;2023-04-08T05:49:06;25.20;;;20.80;;
35290;SDS011;21411;50.024;19.220;2023-04-08T05:51:32;28.70;;;20.70;;
35290;SDS011;21411;50.024;19.220;2023-04-08T05:53:59;27.70;;;22.70;;
35290;SDS011;21411;50.024;19.220;2023-04-08T05:56:25;26.10;;;20.70;;
35290;SDS011;21411;50.024;19.220;2023-04-08T05:58:52;24.90;;;20.60;;
35290;SDS011;21411;50.024;19.220;2023-04-08T06:01:18;23.00;;;19.00;;
35290;SDS011;21411;50.024;19.220;2023-04-08T06:03:45;23.20;;;19.70;;
35290;SDS011;21411;50.024;19.220;2023-04-08T06:06:12;22.80;;;19.10;;
35290;SDS011;21411;50.024;19.220;2023-04-08T06:08:38;21.00;;;18.70;;
35290;SDS011;21411;50.024;19.220;2023-04-08T06:11:06;21.10;;;17.80;;
35290;SDS011;21411;50.024;19.220;2023-04-08T06:13:32;21.90;;;19.70;;
35290;SDS011;21411;50.024;19.220;2023-04-08T06:16:10;21.80;;;18.70;;
35290;SDS011;21411;50.024;19.220;2023-04-08T06:18:38;22.00;;;19.30;;
35290;SDS011;21411;50.024;19.220;2023-04-08T06:21:05;27.20;;;22.20;;
35290;SDS011;21411;50.024;19.220;2023-04-08T06:23:32;24.90;;;20.20;;
35290;SDS011;21411;50.024;19.220;2023-04-08T06:25:58;23.70;;;20.40;;
35290;SDS011;21411;50.024;19.220;2023-04-08T06:28:25;20.90;;;18.80;;
35290;SDS011;21411;50.024;19.220;2023-04-08T06:30:51;19.90;;;17.80;;
35290;SDS011;21411;50.024;19.220;2023-04-08T06:33:18;19.70;;;17.60;;
35290;SDS011;21411;50.024;19.220;2023-04-08T06:35:44;19.40;;;17.10;;
35290;SDS011;21411;50.024;19.220;2023-04-08T06:38:11;18.80;;;16.80;;
35290;SDS011;21411;50.024;19.220;2023-04-08T06:40:38;18.50;;;16.40;;
35290;SDS011;21411;50.024;19.220;2023-04-08T06:43:05;17.40;;;15.60;;
35290;SDS011;21411;50.024;19.220;2023-04-08T06:45:33;18.50;;;16.60;;
35290;SDS011;21411;50.024;19.220;2023-04-08T06:48:00;18.70;;;16.80;;
35290;SDS011;21411;50.024;19.220;2023-04-08T06:50:26;21.50;;;18.70;;
35290;SDS011;21411;50.024;19.220;2023-04-08T06:52:53;18.70;;;16.70;;
35290;SDS011;21411;50.024;19.220;2023-04-08T06:55:20;18.90;;;16.20;;
35290;SDS011;21411;50.024;19.220;2023-04-08T06:57:47;18.50;;;16.60;;
35290;SDS011;21411;50.024;19.220;2023-04-08T07:00:13;19.60;;;15.90;;
35290;SDS011;21411;50.024;19.220;2023-04-08T07:02:40;18.60;;;16.20;;
35290;SDS011;21411;50.024;19.220;2023-04-08T07:05:07;19.50;;;17.40;;
35290;SDS011;21411;50.024;19.220;2023-04-08T07:07:33;18.90;;;16.90;;
35290;SDS011;21411;50.024;19.220;2023-04-08T07:10:00;17.90;;;16.10;;
35290;SDS011;21411;50.024;19.220;2023-04-08T07:12:26;19.50;;;17.40;;
35290;SDS011;21411;50.024;19.220;2023-04-08T07:14:53;19.30;;;16.80;;
35290;SDS011;21411;50.024;19.220;2023-04-08T07:17:20;18.20;;;16.30;;
35290;SDS011;21411;50.024;19.220;2023-04-08T07:19:46;18.30;;;16.30;;
35290;SDS011;21411;50.024;19.220;2023-04-08T07:22:13;18.10;;;16.30;;
35290;SDS011;21411;50.024;19.220;2023-04-08T07:24:39;17.30;;;15.50;;
35290;SDS011;21411;50.024;19.220;2023-04-08T07:27:07;19.40;;;17.40;;
35290;SDS011;21411;50.024;19.220;2023-04-08T07:29:34;22.50;;;19.70;;
35290;SDS011;21411;50.024;19.220;2023-04-08T07:32:00;20.90;;;18.70;;
35290;SDS011;21411;50.024;19.220;2023-04-08T07:34:27;18.90;;;17.10;;
35290;SDS011;21411;50.024;19.220;2023-04-08T07:36:53;18.00;;;16.10;;
35290;SDS011;21411;50.024;19.220;2023-04-08T07:39:20;17.80;;;16.10;;
35290;SDS011;21411;50.024;19.220;2023-04-08T07:41:46;19.80;;;17.80;;
35290;SDS011;21411;50.024;19.220;2023-04-08T07:44:13;20.50;;;18.30;;
35290;SDS011;21411;50.024;19.220;2023-04-08T07:46:42;19.10;;;14.70;;
35290;SDS011;21411;50.024;19.220;2023-04-08T07:49:10;18.70;;;16.80;;
35290;SDS011;21411;50.024;19.220;2023-04-08T07:51:37;18.20;;;16.30;;
35290;SDS011;21411;50.024;19.220;2023-04-08T07:54:04;33.80;;;30.60;;
35290;SDS011;21411;50.024;19.220;2023-04-08T07:56:31;24.20;;;21.90;;
35290;SDS011;21411;50.024;19.220;2023-04-08T07:58:58;28.60;;;25.80;;
35290;SDS011;21411;50.024;19.220;2023-04-08T08:01:24;24.80;;;22.50;;
35290;SDS011;21411;50.024;19.220;2023-04-08T08:03:53;17.10;;;15.50;;
35290;SDS011;21411;50.024;19.220;2023-04-08T08:06:19;17.00;;;15.20;;
35290;SDS011;21411;50.024;19.220;2023-04-08T08:08:46;15.50;;;14.00;;
35290;SDS011;21411;50.024;19.220;2023-04-08T08:11:13;15.70;;;14.00;;
35290;SDS011;21411;50.024;19.220;2023-04-08T08:13:39;14.30;;;12.80;;
35290;SDS011;21411;50.024;19.220;2023-04-08T08:16:06;15.40;;;13.80;;
35290;SDS011;21411;50.024;19.220;2023-04-08T08:18:36;16.70;;;15.10;;
35290;SDS011;21411;50.024;19.220;2023-04-08T08:21:05;17.70;;;15.50;;
35290;SDS011;21411;50.024;19.220;2023-04-08T08:23:31;16.00;;;14.40;;
35290;SDS011;21411;50.024;19.220;2023-04-08T08:26:05;17.10;;;15.40;;
35290;SDS011;21411;50.024;19.220;2023-04-08T08:28:35;14.50;;;13.10;;
35290;SDS011;21411;50.024;19.220;2023-04-08T08:31:01;14.70;;;13.20;;
35290;SDS011;21411;50.024;19.220;2023-04-08T08:33:28;15.00;;;13.50;;
35290;SDS011;21411;50.024;19.220;2023-04-08T08:35:55;13.60;;;12.20;;
35290;SDS011;21411;50.024;19.220;2023-04-08T08:38:23;15.00;;;13.50;;
35290;SDS011;21411;50.024;19.220;2023-04-08T08:40:53;15.70;;;14.20;;
35290;SDS011;21411;50.024;19.220;2023-04-08T08:43:21;13.90;;;12.50;;
35290;SDS011;21411;50.024;19.220;2023-04-08T08:45:49;13.50;;;12.20;;
35290;SDS011;21411;50.024;19.220;2023-04-08T08:48:16;16.20;;;14.70;;
35290;SDS011;21411;50.024;19.220;2023-04-08T08:50:43;13.60;;;12.30;;
35290;SDS011;21411;50.024;19.220;2023-04-08T08:53:09;13.50;;;12.20;;
35290;SDS011;21411;50.024;19.220;2023-04-08T08:55:36;12.90;;;11.60;;
35290;SDS011;21411;50.024;19.220;2023-04-08T08:58:04;12.30;;;11.10;;
35290;SDS011;21411;50.024;19.220;2023-04-08T09:00:36;12.90;;;11.60;;
35290;SDS011;21411;50.024;19.220;2023-04-08T09:03:19;14.50;;;13.10;;
35290;SDS011;21411;50.024;19.220;2023-04-08T09:05:54;21.80;;;19.20;;
35290;SDS011;21411;50.024;19.220;2023-04-08T09:08:22;13.70;;;12.30;;
35290;SDS011;21411;50.024;19.220;2023-04-08T09:10:49;11.60;;;10.50;;
35290;SDS011;21411;50.024;19.220;2023-04-08T09:13:15;12.80;;;11.50;;
35290;SDS011;21411;50.024;19.220;2023-04-08T09:18:29;14.50;;;13.10;;
35290;SDS011;21411;50.024;19.220;2023-04-08T09:20:56;12.70;;;11.40;;
35290;SDS011;21411;50.024;19.220;2023-04-08T09:23:36;12.50;;;11.30;;
35290;SDS011;21411;50.024;19.220;2023-04-08T09:26:06;10.90;;;9.80;;
35290;SDS011;21411;50.024;19.220;2023-04-08T09:28:41;11.00;;;10.00;;
35290;SDS011;21411;50.024;19.220;2023-04-08T09:31:22;9.90;;;9.00;;
35290;SDS011;21411;50.024;19.220;2023-04-08T09:36:17;10.70;;;9.70;;
35290;SDS011;21411;50.024;19.220;2023-04-08T09:38:44;9.20;;;8.40;;
35290;SDS011;21411;50.024;19.220;2023-04-08T09:41:12;9.10;;;8.30;;
35290;SDS011;21411;50.024;19.220;2023-04-08T09:43:51;9.60;;;8.80;;
35290;SDS011;21411;50.024;19.220;2023-04-08T09:49:25;8.50;;;7.80;;
35290;SDS011;21411;50.024;19.220;2023-04-08T09:57:21;8.50;;;7.80;;
35290;SDS011;21411;50.024;19.220;2023-04-08T10:00:10;7.70;;;6.80;;
35290;SDS011;21411;50.024;19.220;2023-04-08T10:02:44;8.40;;;7.70;;
35290;SDS011;21411;50.024;19.220;2023-04-08T10:05:12;7.80;;;7.20;;
35290;SDS011;21411;50.024;19.220;2023-04-08T10:07:40;8.60;;;7.70;;
35290;SDS011;21411;50.024;19.220;2023-04-08T10:10:07;8.10;;;7.40;;
35290;SDS011;21411;50.024;19.220;2023-04-08T10:12:36;8.90;;;8.10;;
35290;SDS011;21411;50.024;19.220;2023-04-08T10:17:52;13.70;;;12.40;;
35290;SDS011;21411;50.024;19.220;2023-04-08T10:25:36;12.40;;;10.20;;
35290;SDS011;21411;50.024;19.220;2023-04-08T10:30:40;7.50;;;6.70;;
35290;SDS011;21411;50.024;19.220;2023-04-08T10:38:25;8.10;;;7.40;;
35290;SDS011;21411;50.024;19.220;2023-04-08T10:40:52;8.40;;;7.50;;
35290;SDS011;21411;50.024;19.220;2023-04-08T10:43:19;9.10;;;7.80;;
35290;SDS011;21411;50.024;19.220;2023-04-08T10:45:46;9.40;;;8.10;;
35290;SDS011;21411;50.024;19.220;2023-04-08T10:48:22;8.50;;;7.70;;
35290;SDS011;21411;50.024;19.220;2023-04-08T10:53:26;8.80;;;8.00;;
35290;SDS011;21411;50.024;19.220;2023-04-08T10:56:08;9.00;;;8.10;;
35290;SDS011;21411;50.024;19.220;2023-04-08T10:58:47;8.80;;;8.00;;
35290;SDS011;21411;50.024;19.220;2023-04-08T11:01:15;9.80;;;8.90;;
35290;SDS011;21411;50.024;19.220;2023-04-08T11:03:42;10.40;;;9.40;;
35290;SDS011;21411;50.024;19.220;2023-04-08T11:06:09;10.30;;;9.30;;
35290;SDS011;21411;50.024;19.220;2023-04-08T11:08:36;9.60;;;8.70;;
35290;SDS011;21411;50.024;19.220;2023-04-08T11:11:04;10.80;;;9.80;;
35290;SDS011;21411;50.024;19.220;2023-04-08T11:13:36;10.80;;;9.70;;
35290;SDS011;21411;50.024;19.220;2023-04-08T11:16:06;10.50;;;9.50;;
35290;SDS011;21411;50.024;19.220;2023-04-08T11:18:36;9.40;;;8.50;;
35290;SDS011;21411;50.024;19.220;2023-04-08T11:21:08;11.40;;;10.40;;
35290;SDS011;21411;50.024;19.220;2023-04-08T11:23:35;10.60;;;9.50;;
35290;SDS011;21411;50.024;19.220;2023-04-08T11:26:02;11.00;;;10.00;;
35290;SDS011;21411;50.024;19.220;2023-04-08T11:28:29;11.50;;;10.40;;
35290;SDS011;21411;50.024;19.220;2023-04-08T11:30:57;10.70;;;9.70;;
35290;SDS011;21411;50.024;19.220;2023-04-08T11:33:24;12.20;;;11.10;;
35290;SDS011;21411;50.024;19.220;2023-04-08T11:35:52;12.10;;;11.00;;
35290;SDS011;21411;50.024;19.220;2023-04-08T11:38:22;12.90;;;11.70;;
35290;SDS011;21411;50.024;19.220;2023-04-08T11:40:53;13.60;;;12.30;;
35290;SDS011;21411;50.024;19.220;2023-04-08T11:43:20;13.30;;;12.00;;
35290;SDS011;21411;50.024;19.220;2023-04-08T11:45:48;12.90;;;11.70;;
35290;SDS011;21411;50.024;19.220;2023-04-08T11:48:15;11.80;;;10.70;;
35290;SDS011;21411;50.024;19.220;2023-04-08T11:50:43;12.00;;;10.90;;
35290;SDS011;21411;50.024;19.220;2023-04-08T11:53:19;12.20;;;10.60;;
35290;SDS011;21411;50.024;19.220;2023-04-08T11:55:47;12.00;;;10.90;;
35290;SDS011;21411;50.024;19.220;2023-04-08T11:58:14;12.40;;;11.30;;
35290;SDS011;21411;50.024;19.220;2023-04-08T12:00:41;12.10;;;10.90;;
35290;SDS011;21411;50.024;19.220;2023-04-08T12:03:09;13.90;;;12.50;;
35290;SDS011;21411;50.024;19.220;2023-04-08T12:05:36;12.70;;;11.40;;
35290;SDS011;21411;50.024;19.220;2023-04-08T12:08:03;13.90;;;12.50;;
35290;SDS011;21411;50.024;19.220;2023-04-08T12:10:29;12.00;;;10.90;;
35290;SDS011;21411;50.024;19.220;2023-04-08T12:12:56;14.30;;;12.90;;
35290;SDS011;21411;50.024;19.220;2023-04-08T12:15:23;15.10;;;13.60;;
35290;SDS011;21411;50.024;19.220;2023-04-08T12:17:49;15.80;;;14.30;;
35290;SDS011;21411;50.024;19.220;2023-04-08T12:20:15;14.40;;;12.90;;
35290;SDS011;21411;50.024;19.220;2023-04-08T12:22:42;15.40;;;13.80;;
35290;SDS011;21411;50.024;19.220;2023-04-08T12:25:09;13.10;;;11.80;;
35290;SDS011;21411;50.024;19.220;2023-04-08T12:27:35;13.90;;;12.40;;
35290;SDS011;21411;50.024;19.220;2023-04-08T12:30:02;12.20;;;11.00;;
35290;SDS011;21411;50.024;19.220;2023-04-08T12:32:29;13.30;;;11.90;;
35290;SDS011;21411;50.024;19.220;2023-04-08T12:34:56;13.80;;;12.40;;
35290;SDS011;21411;50.024;19.220;2023-04-08T12:37:22;15.20;;;13.50;;
35290;SDS011;21411;50.024;19.220;2023-04-08T12:39:49;15.70;;;14.00;;
35290;SDS011;21411;50.024;19.220;2023-04-08T12:42:15;16.30;;;14.60;;
35290;SDS011;21411;50.024;19.220;2023-04-08T12:44:42;17.00;;;14.70;;
35290;SDS011;21411;50.024;19.220;2023-04-08T12:47:08;14.20;;;12.80;;
35290;SDS011;21411;50.024;19.220;2023-04-08T12:49:35;15.10;;;13.50;;
35290;SDS011;21411;50.024;19.220;2023-04-08T12:52:01;15.70;;;14.00;;
35290;SDS011;21411;50.024;19.220;2023-04-08T12:54:28;14.00;;;12.60;;
35290;SDS011;21411;50.024;19.220;2023-04-08T12:56:56;16.40;;;14.70;;
35290;SDS011;21411;50.024;19.220;2023-04-08T12:59:23;16.60;;;14.90;;
35290;SDS011;21411;50.024;19.220;2023-04-08T13:01:49;15.80;;;14.20;;
35290;SDS011;21411;50.024;19.220;2023-04-08T13:04:16;19.40;;;17.40;;
35290;SDS011;21411;50.024;19.220;2023-04-08T13:06:43;21.60;;;17.90;;
35290;SDS011;21411;50.024;19.220;2023-04-08T13:09:09;20.00;;;17.90;;
35290;SDS011;21411;50.024;19.220;2023-04-08T13:11:36;24.80;;;18.10;;
35290;SDS011;21411;50.024;19.220;2023-04-08T13:14:02;19.70;;;17.00;;
35290;SDS011;21411;50.024;19.220;2023-04-08T13:16:29;23.20;;;18.40;;
35290;SDS011;21411;50.024;19.220;2023-04-08T13:18:55;21.20;;;17.80;;
35290;SDS011;21411;50.024;19.220;2023-04-08T13:21:22;20.50;;;17.60;;
35290;SDS011;21411;50.024;19.220;2023-04-08T13:23:48;24.40;;;19.80;;
35290;SDS011;21411;50.024;19.220;2023-04-08T13:26:15;22.50;;;18.50;;
35290;SDS011;21411;50.024;19.220;2023-04-08T13:28:41;21.70;;;18.80;;
35290;SDS011;21411;50.024;19.220;2023-04-08T13:31:08;23.40;;;19.60;;
35290;SDS011;21411;50.024;19.220;2023-04-08T13:33:34;23.80;;;19.90;;
35290;SDS011;21411;50.024;19.220;2023-04-08T13:36:01;24.80;;;19.00;;
35290;SDS011;21411;50.024;19.220;2023-04-08T13:38:27;23.50;;;19.50;;
35290;SDS011;21411;50.024;19.220;2023-04-08T13:40:54;24.80;;;19.40;;
35290;SDS011;21411;50.024;19.220;2023-04-08T13:43:20;24.20;;;18.00;;
35290;SDS011;21411;50.024;19.220;2023-04-08T13:45:47;22.20;;;18.80;;
35290;SDS011;21411;50.024;19.220;2023-04-08T13:48:14;23.90;;;18.90;;
35290;SDS011;21411;50.024;19.220;2023-04-08T13:50:41;21.60;;;18.00;;
35290;SDS011;21411;50.024;19.220;2023-04-08T13:53:08;21.10;;;17.70;;
35290;SDS011;21411;50.024;19.220;2023-04-08T13:55:35;21.40;;;19.00;;
35290;SDS011;21411;50.024;19.220;2023-04-08T13:58:01;21.20;;;18.10;;
35290;SDS011;21411;50.024;19.220;2023-04-08T14:00:28;19.70;;;16.80;;
35290;SDS011;21411;50.024;19.220;2023-04-08T14:02:55;21.70;;;16.10;;
35290;SDS011;21411;50.024;19.220;2023-04-08T14:05:21;21.30;;;17.50;;
35290;SDS011;21411;50.024;19.220;2023-04-08T14:07:48;20.50;;;16.20;;
35290;SDS011;21411;50.024;19.220;2023-04-08T14:10:15;19.60;;;15.00;;
35290;SDS011;21411;50.024;19.220;2023-04-08T14:12:42;20.00;;;17.00;;
35290;SDS011;21411;50.024;19.220;2023-04-08T14:15:09;24.40;;;18.50;;
35290;SDS011;21411;50.024;19.220;2023-04-08T14:17:35;24.30;;;19.50;;
35290;SDS011;21411;50.024;19.220;2023-04-08T14:20:02;22.10;;;17.70;;
35290;SDS011;21411;50.024;19.220;2023-04-08T14:22:30;22.20;;;17.40;;
35290;SDS011;21411;50.024;19.220;2023-04-08T14:24:57;22.70;;;17.90;;
35290;SDS011;21411;50.024;19.220;2023-04-08T14:27:23;22.60;;;18.80;;
35290;SDS011;21411;50.024;19.220;2023-04-08T14:29:50;24.20;;;18.90;;
35290;SDS011;21411;50.024;19.220;2023-04-08T14:32:16;27.10;;;20.50;;
35290;SDS011;21411;50.024;19.220;2023-04-08T14:34:43;24.20;;;18.00;;
35290;SDS011;21411;50.024;19.220;2023-04-08T14:37:10;23.70;;;19.40;;
35290;SDS011;21411;50.024;19.220;2023-04-08T14:39:37;23.00;;;18.40;;
35290;SDS011;21411;50.024;19.220;2023-04-08T14:42:03;26.90;;;19.90;;
35290;SDS011;21411;50.024;19.220;2023-04-08T14:44:30;26.80;;;20.40;;
35290;SDS011;21411;50.024;19.220;2023-04-08T14:46:56;26.30;;;20.30;;
35290;SDS011;21411;50.024;19.220;2023-04-08T14:49:23;30.90;;;22.20;;
35290;SDS011;21411;50.024;19.220;2023-04-08T14:51:49;30.30;;;20.50;;
35290;SDS011;21411;50.024;19.220;2023-04-08T14:54:16;28.70;;;20.90;;